sensor_id;sensor_type;location;lat;lon;timestamp;pressure;altitude;pressure_sealevel;temperature;humidity
52137;BME280;38130;49.012;8.368;2022-08-21T00:02:22;100370.28;;;19.73;75.21
52137;BME280;38130;49.012;8.368;2022-08-21T00:04:50;100375.16;;;19.89;74.82
52137;BME280;38130;49.012;8.368;2022-08-21T00:07:22;100367.44;;;19.97;73.56
52137;BME280;38130;49.012;8.368;2022-08-21T00:09:50;100376.59;;;19.82;74.31
52137;BME280;38130;49.012;8.368;2022-08-21T00:12:17;100371.13;;;19.52;75.83
52137;BME280;38130;49.012;8.368;2022-08-21T00:14:44;100374.66;;;19.41;77.60
52137;BME280;38130;49.012;8.368;2022-08-21T00:17:11;100364.94;;;19.30;78.01
52137;BME280;38130;49.012;8.368;2022-08-21T00:19:38;100374.53;;;19.31;78.15
52137;BME280;38130;49.012;8.368;2022-08-21T00:22:04;100366.94;;;19.38;78.83
52137;BME280;38130;49.012;8.368;2022-08-21T00:24:31;100361.84;;;19.14;79.27
52137;BME280;38130;49.012;8.368;2022-08-21T00:26:57;100363.63;;;19.13;79.69
52137;BME280;38130;49.012;8.368;2022-08-21T00:29:24;100358.59;;;19.22;79.30
52137;BME280;38130;49.012;8.368;2022-08-21T00:31:51;100360.75;;;19.28;79.76
52137;BME280;38130;49.012;8.368;2022-08-21T00:34:17;100362.06;;;19.22;79.74
52137;BME280;38130;49.012;8.368;2022-08-21T00:36:44;100353.44;;;19.09;80.20
52137;BME280;38130;49.012;8.368;2022-08-21T00:39:10;100350.69;;;18.88;81.33
52137;BME280;38130;49.012;8.368;2022-08-21T00:41:38;100346.25;;;18.77;83.51
52137;BME280;38130;49.012;8.368;2022-08-21T00:44:07;100348.16;;;18.87;82.66
52137;BME280;38130;49.012;8.368;2022-08-21T00:46:35;100344.22;;;18.70;83.57
52137;BME280;38130;49.012;8.368;2022-08-21T00:49:04;100345.63;;;18.63;84.31
52137;BME280;38130;49.012;8.368;2022-08-21T00:51:45;100341.53;;;18.59;84.96
52137;BME280;38130;49.012;8.368;2022-08-21T00:54:14;100344.16;;;18.59;85.18
52137;BME280;38130;49.012;8.368;2022-08-21T00:56:45;100338.28;;;18.55;85.70
52137;BME280;38130;49.012;8.368;2022-08-21T00:59:13;100343.00;;;18.63;85.29
52137;BME280;38130;49.012;8.368;2022-08-21T01:01:40;100344.16;;;18.59;85.68
52137;BME280;38130;49.012;8.368;2022-08-21T01:04:06;100346.66;;;18.49;86.29
52137;BME280;38130;49.012;8.368;2022-08-21T01:06:33;100342.34;;;18.37;87.56
52137;BME280;38130;49.012;8.368;2022-08-21T01:08:59;100348.66;;;18.34;87.92
52137;BME280;38130;49.012;8.368;2022-08-21T01:11:26;100345.19;;;18.34;88.30
52137;BME280;38130;49.012;8.368;2022-08-21T01:13:53;100350.72;;;18.42;87.36
52137;BME280;38130;49.012;8.368;2022-08-21T01:16:21;100342.34;;;18.37;87.94
52137;BME280;38130;49.012;8.368;2022-08-21T01:18:49;100344.38;;;18.33;88.11
52137;BME280;38130;49.012;8.368;2022-08-21T01:21:22;100345.88;;;18.24;88.70
52137;BME280;38130;49.012;8.368;2022-08-21T01:23:55;100339.91;;;18.22;88.77
52137;BME280;38130;49.012;8.368;2022-08-21T01:26:25;100341.31;;;18.15;89.42
52137;BME280;38130;49.012;8.368;2022-08-21T01:29:13;100329.84;;;18.27;88.44
52137;BME280;38130;49.012;8.368;2022-08-21T01:31:41;100336.59;;;18.32;87.77
52137;BME280;38130;49.012;8.368;2022-08-21T01:34:09;100339.53;;;18.27;87.98
52137;BME280;38130;49.012;8.368;2022-08-21T01:36:36;100342.28;;;18.25;88.62
52137;BME280;38130;49.012;8.368;2022-08-21T01:39:03;100337.84;;;18.15;88.91
52137;BME280;38130;49.012;8.368;2022-08-21T01:41:30;100335.09;;;18.16;89.10
52137;BME280;38130;49.012;8.368;2022-08-21T01:43:56;100333.66;;;18.23;88.60
52137;BME280;38130;49.012;8.368;2022-08-21T01:46:23;100336.19;;;18.25;88.21
52137;BME280;38130;49.012;8.368;2022-08-21T01:48:49;100335.22;;;18.26;88.55
52137;BME280;38130;49.012;8.368;2022-08-21T01:51:16;100337.50;;;18.19;88.97
52137;BME280;38130;49.012;8.368;2022-08-21T01:53:43;100335.34;;;18.24;89.01
52137;BME280;38130;49.012;8.368;2022-08-21T01:56:12;100332.22;;;18.19;89.88
52137;BME280;38130;49.012;8.368;2022-08-21T01:58:40;100335.09;;;18.27;89.12
52137;BME280;38130;49.012;8.368;2022-08-21T02:01:07;100331.41;;;18.19;89.63
52137;BME280;38130;49.012;8.368;2022-08-21T02:03:34;100331.28;;;18.20;89.99
52137;BME280;38130;49.012;8.368;2022-08-21T02:06:03;100327.41;;;18.13;90.26
52137;BME280;38130;49.012;8.368;2022-08-21T02:08:30;100323.09;;;18.01;91.20
52137;BME280;38130;49.012;8.368;2022-08-21T02:10:57;100321.72;;;17.95;91.53
52137;BME280;38130;49.012;8.368;2022-08-21T02:13:24;100320.28;;;17.91;92.18
52137;BME280;38130;49.012;8.368;2022-08-21T02:15:50;100320.88;;;17.95;91.97
52137;BME280;38130;49.012;8.368;2022-08-21T02:18:17;100317.00;;;17.77;92.57
52137;BME280;38130;49.012;8.368;2022-08-21T02:20:47;100317.75;;;17.66;94.16
52137;BME280;38130;49.012;8.368;2022-08-21T02:23:19;100321.78;;;17.59;94.85
52137;BME280;38130;49.012;8.368;2022-08-21T02:25:52;100316.03;;;17.54;95.17
52137;BME280;38130;49.012;8.368;2022-08-21T02:28:18;100304.78;;;17.52;94.76
52137;BME280;38130;49.012;8.368;2022-08-21T02:30:47;100305.81;;;17.49;95.34
52137;BME280;38130;49.012;8.368;2022-08-21T02:33:15;100303.59;;;17.56;95.22
52137;BME280;38130;49.012;8.368;2022-08-21T02:35:42;100305.16;;;17.58;94.89
52137;BME280;38130;49.012;8.368;2022-08-21T02:38:12;100301.94;;;17.66;93.97
52137;BME280;38130;49.012;8.368;2022-08-21T02:40:42;100299.66;;;17.61;93.78
52137;BME280;38130;49.012;8.368;2022-08-21T02:43:14;100302.03;;;17.53;94.59
52137;BME280;38130;49.012;8.368;2022-08-21T02:45:42;100299.34;;;17.42;95.21
52137;BME280;38130;49.012;8.368;2022-08-21T02:48:11;100303.16;;;17.38;95.46
52137;BME280;38130;49.012;8.368;2022-08-21T02:50:42;100306.72;;;17.37;95.83
52137;BME280;38130;49.012;8.368;2022-08-21T02:53:11;100303.16;;;17.38;95.73
52137;BME280;38130;49.012;8.368;2022-08-21T02:55:47;100305.81;;;17.49;94.42
52137;BME280;38130;49.012;8.368;2022-08-21T02:58:16;100311.53;;;17.43;95.81
52137;BME280;38130;49.012;8.368;2022-08-21T03:00:44;100313.81;;;17.48;95.64
52137;BME280;38130;49.012;8.368;2022-08-21T03:03:11;100312.31;;;17.56;94.79
52137;BME280;38130;49.012;8.368;2022-08-21T03:05:40;100312.31;;;17.56;94.43
52137;BME280;38130;49.012;8.368;2022-08-21T03:08:09;100315.69;;;17.58;94.31
52137;BME280;38130;49.012;8.368;2022-08-21T03:10:38;100315.31;;;17.52;95.03
52137;BME280;38130;49.012;8.368;2022-08-21T03:13:08;100310.31;;;17.36;96.16
52137;BME280;38130;49.012;8.368;2022-08-21T03:15:36;100316.56;;;17.22;97.06
52137;BME280;38130;49.012;8.368;2022-08-21T03:18:03;100312.44;;;17.18;97.86
52137;BME280;38130;49.012;8.368;2022-08-21T03:20:31;100315.91;;;17.19;97.65
52137;BME280;38130;49.012;8.368;2022-08-21T03:22:59;100307.59;;;17.25;96.97
52137;BME280;38130;49.012;8.368;2022-08-21T03:25:27;100311.06;;;17.25;96.37
52137;BME280;38130;49.012;8.368;2022-08-21T03:28:09;100312.25;;;17.21;97.08
52137;BME280;38130;49.012;8.368;2022-08-21T03:30:40;100314.69;;;17.12;97.73
52137;BME280;38130;49.012;8.368;2022-08-21T03:33:07;100311.97;;;17.00;98.55
52137;BME280;38130;49.012;8.368;2022-08-21T03:35:37;100310.00;;;16.91;99.08
52137;BME280;38130;49.012;8.368;2022-08-21T03:38:04;100309.34;;;16.88;100.00
52137;BME280;38130;49.012;8.368;2022-08-21T03:40:30;100307.88;;;16.84;100.00
52137;BME280;38130;49.012;8.368;2022-08-21T03:42:57;100313.16;;;16.84;100.00
52137;BME280;38130;49.012;8.368;2022-08-21T03:45:25;100312.19;;;16.72;100.00
52137;BME280;38130;49.012;8.368;2022-08-21T03:48:00;100312.72;;;16.64;100.00
52137;BME280;38130;49.012;8.368;2022-08-21T03:50:30;100315.78;;;16.58;100.00
52137;BME280;38130;49.012;8.368;2022-08-21T03:52:58;100319.63;;;16.53;100.00
52137;BME280;38130;49.012;8.368;2022-08-21T03:55:26;100313.13;;;16.45;100.00
52137;BME280;38130;49.012;8.368;2022-08-21T03:57:53;100312.59;;;16.40;100.00
52137;BME280;38130;49.012;8.368;2022-08-21T04:00:20;100315.75;;;16.33;100.00
52137;BME280;38130;49.012;8.368;2022-08-21T04:02:47;100312.59;;;16.28;100.00
52137;BME280;38130;49.012;8.368;2022-08-21T04:05:16;100315.22;;;16.28;100.00
52137;BME280;38130;49.012;8.368;2022-08-21T04:07:55;100322.28;;;16.27;100.00
52137;BME280;38130;49.012;8.368;2022-08-21T04:10:22;100321.13;;;16.31;100.00
52137;BME280;38130;49.012;8.368;2022-08-21T04:12:51;100323.28;;;16.25;100.00
52137;BME280;38130;49.012;8.368;2022-08-21T04:15:17;100330.25;;;16.26;100.00
52137;BME280;38130;49.012;8.368;2022-08-21T04:17:44;100336.84;;;16.31;100.00
52137;BME280;38130;49.012;8.368;2022-08-21T04:20:10;100335.06;;;16.32;100.00
52137;BME280;38130;49.012;8.368;2022-08-21T04:22:37;100333.91;;;16.23;100.00
52137;BME280;38130;49.012;8.368;2022-08-21T04:25:04;100336.84;;;16.31;100.00
52137;BME280;38130;49.012;8.368;2022-08-21T04:27:31;100338.84;;;16.40;100.00
52137;BME280;38130;49.012;8.368;2022-08-21T04:29:57;100336.13;;;16.29;100.00
52137;BME280;38130;49.012;8.368;2022-08-21T04:32:24;100342.31;;;16.28;100.00
52137;BME280;38130;49.012;8.368;2022-08-21T04:34:59;100348.63;;;16.51;100.00
52137;BME280;38130;49.012;8.368;2022-08-21T04:37:27;100355.78;;;16.62;100.00
52137;BME280;38130;49.012;8.368;2022-08-21T04:39:53;100351.59;;;16.46;100.00
52137;BME280;38130;49.012;8.368;2022-08-21T04:42:24;100348.31;;;16.56;100.00
52137;BME280;38130;49.012;8.368;2022-08-21T04:44:51;100360.91;;;16.51;100.00
52137;BME280;38130;49.012;8.368;2022-08-21T04:47:18;100354.53;;;16.42;100.00
52137;BME280;38130;49.012;8.368;2022-08-21T04:49:45;100358.53;;;16.60;100.00
52137;BME280;38130;49.012;8.368;2022-08-21T04:52:13;100359.59;;;16.70;100.00
52137;BME280;38130;49.012;8.368;2022-08-21T04:54:42;100358.72;;;16.44;100.00
52137;BME280;38130;49.012;8.368;2022-08-21T04:57:12;100360.38;;;16.33;100.00
52137;BME280;38130;49.012;8.368;2022-08-21T04:59:43;100368.56;;;16.28;100.00
52137;BME280;38130;49.012;8.368;2022-08-21T05:02:10;100367.00;;;16.26;100.00
52137;BME280;38130;49.012;8.368;2022-08-21T05:04:42;100366.03;;;16.39;100.00
52137;BME280;38130;49.012;8.368;2022-08-21T05:07:12;100378.78;;;16.45;100.00
52137;BME280;38130;49.012;8.368;2022-08-21T05:10:01;100381.72;;;16.54;100.00
52137;BME280;38130;49.012;8.368;2022-08-21T05:12:28;100377.66;;;16.62;100.00
52137;BME280;38130;49.012;8.368;2022-08-21T05:14:54;100385.22;;;16.67;100.00
52137;BME280;38130;49.012;8.368;2022-08-21T05:17:21;100383.13;;;16.72;99.92
52137;BME280;38130;49.012;8.368;2022-08-21T05:19:47;100382.00;;;16.76;99.11
52137;BME280;38130;49.012;8.368;2022-08-21T05:22:23;100383.97;;;16.72;99.16
52137;BME280;38130;49.012;8.368;2022-08-21T05:24:51;100389.44;;;16.82;98.50
52137;BME280;38130;49.012;8.368;2022-08-21T05:27:17;100390.28;;;16.83;98.07
52137;BME280;38130;49.012;8.368;2022-08-21T05:29:45;100390.16;;;16.84;97.86
52137;BME280;38130;49.012;8.368;2022-08-21T05:32:12;100381.78;;;16.92;96.87
52137;BME280;38130;49.012;8.368;2022-08-21T05:34:41;100383.03;;;16.86;97.56
52137;BME280;38130;49.012;8.368;2022-08-21T05:37:10;100381.34;;;16.85;97.37
52137;BME280;38130;49.012;8.368;2022-08-21T05:39:37;100372.41;;;16.88;97.37
52137;BME280;38130;49.012;8.368;2022-08-21T05:42:23;100371.50;;;16.89;97.65
52137;BME280;38130;49.012;8.368;2022-08-21T05:44:50;100366.97;;;16.91;97.32
52137;BME280;38130;49.012;8.368;2022-08-21T05:47:17;100382.50;;;16.81;97.93
52137;BME280;38130;49.012;8.368;2022-08-21T05:49:44;100376.94;;;16.86;97.40
52137;BME280;38130;49.012;8.368;2022-08-21T05:52:10;100377.88;;;16.85;97.66
52137;BME280;38130;49.012;8.368;2022-08-21T05:54:37;100378.72;;;16.85;97.31
52137;BME280;38130;49.012;8.368;2022-08-21T05:57:03;100371.16;;;17.06;94.45
52137;BME280;38130;49.012;8.368;2022-08-21T05:59:30;100369.16;;;17.10;94.75
52137;BME280;38130;49.012;8.368;2022-08-21T06:01:56;100373.34;;;17.12;95.21
52137;BME280;38130;49.012;8.368;2022-08-21T06:04:28;100373.31;;;17.25;93.46
52137;BME280;38130;49.012;8.368;2022-08-21T06:06:55;100375.19;;;17.35;91.87
52137;BME280;38130;49.012;8.368;2022-08-21T06:09:21;100384.56;;;17.40;91.88
52137;BME280;38130;49.012;8.368;2022-08-21T06:11:48;100381.25;;;17.49;91.75
52137;BME280;38130;49.012;8.368;2022-08-21T06:14:15;100380.94;;;17.53;89.98
52137;BME280;38130;49.012;8.368;2022-08-21T06:16:42;100383.22;;;17.58;89.63
52137;BME280;38130;49.012;8.368;2022-08-21T06:19:08;100384.91;;;17.59;89.42
52137;BME280;38130;49.012;8.368;2022-08-21T06:21:35;100375.59;;;17.66;89.29
52137;BME280;38130;49.012;8.368;2022-08-21T06:24:01;100384.34;;;17.79;88.57
52137;BME280;38130;49.012;8.368;2022-08-21T06:26:28;100383.50;;;17.79;88.53
52137;BME280;38130;49.012;8.368;2022-08-21T06:28:55;100382.38;;;17.94;87.61
52137;BME280;38130;49.012;8.368;2022-08-21T06:31:24;100390.81;;;18.10;85.76
52137;BME280;38130;49.012;8.368;2022-08-21T06:33:50;100385.44;;;18.12;86.39
52137;BME280;38130;49.012;8.368;2022-08-21T06:36:18;100392.66;;;18.21;85.79
52137;BME280;38130;49.012;8.368;2022-08-21T06:38:45;100381.00;;;18.36;84.34
52137;BME280;38130;49.012;8.368;2022-08-21T06:41:17;100395.88;;;18.48;84.07
52137;BME280;38130;49.012;8.368;2022-08-21T06:43:49;100388.09;;;18.58;82.95
52137;BME280;38130;49.012;8.368;2022-08-21T06:46:16;100395.72;;;18.74;81.98
52137;BME280;38130;49.012;8.368;2022-08-21T06:48:42;100393.19;;;18.72;81.83
52137;BME280;38130;49.012;8.368;2022-08-21T06:51:09;100393.94;;;18.85;80.62
52137;BME280;38130;49.012;8.368;2022-08-21T06:53:35;100394.31;;;18.81;80.70
52137;BME280;38130;49.012;8.368;2022-08-21T06:56:02;100398.63;;;19.15;79.03
52137;BME280;38130;49.012;8.368;2022-08-21T06:58:29;100395.72;;;19.74;76.42
52137;BME280;38130;49.012;8.368;2022-08-21T07:00:57;100388.53;;;20.29;72.79
52137;BME280;38130;49.012;8.368;2022-08-21T07:03:29;100383.84;;;20.33;72.36
52137;BME280;38130;49.012;8.368;2022-08-21T07:05:56;100389.53;;;20.49;71.14
52137;BME280;38130;49.012;8.368;2022-08-21T07:08:26;100384.53;;;20.35;72.36
52137;BME280;38130;49.012;8.368;2022-08-21T07:10:55;100389.84;;;20.03;73.93
52137;BME280;38130;49.012;8.368;2022-08-21T07:13:22;100385.72;;;19.89;74.68
52137;BME280;38130;49.012;8.368;2022-08-21T07:15:49;100396.56;;;19.75;75.88
52137;BME280;38130;49.012;8.368;2022-08-21T07:18:16;100392.53;;;19.92;75.53
52137;BME280;38130;49.012;8.368;2022-08-21T07:20:43;100387.03;;;20.16;74.46
52137;BME280;38130;49.012;8.368;2022-08-21T07:23:26;100386.66;;;20.52;72.45
52137;BME280;38130;49.012;8.368;2022-08-21T07:25:53;100385.75;;;20.63;71.67
52137;BME280;38130;49.012;8.368;2022-08-21T07:28:20;100385.38;;;20.98;69.29
52137;BME280;38130;49.012;8.368;2022-08-21T07:30:52;100384.94;;;21.23;68.32
52137;BME280;38130;49.012;8.368;2022-08-21T07:33:19;100388.81;;;21.60;66.29
52137;BME280;38130;49.012;8.368;2022-08-21T07:35:45;100383.28;;;21.82;65.24
52137;BME280;38130;49.012;8.368;2022-08-21T07:38:12;100385.78;;;21.93;64.58
52137;BME280;38130;49.012;8.368;2022-08-21T07:40:38;100384.69;;;21.86;64.59
52137;BME280;38130;49.012;8.368;2022-08-21T07:43:05;100377.88;;;22.03;64.27
52137;BME280;38130;49.012;8.368;2022-08-21T07:45:32;100383.94;;;22.71;61.11
52137;BME280;38130;49.012;8.368;2022-08-21T07:47:58;100387.16;;;23.49;57.60
52137;BME280;38130;49.012;8.368;2022-08-21T07:50:25;100387.19;;;24.47;53.56
52137;BME280;38130;49.012;8.368;2022-08-21T07:52:52;100378.78;;;25.12;50.49
52137;BME280;38130;49.012;8.368;2022-08-21T07:55:20;100381.25;;;25.56;49.55
52137;BME280;38130;49.012;8.368;2022-08-21T07:57:48;100380.41;;;25.47;49.78
52137;BME280;38130;49.012;8.368;2022-08-21T08:00:17;100379.03;;;26.02;47.66
52137;BME280;38130;49.012;8.368;2022-08-21T08:02:48;100382.56;;;26.26;46.27
52137;BME280;38130;49.012;8.368;2022-08-21T08:05:19;100380.56;;;26.28;46.45
52137;BME280;38130;49.012;8.368;2022-08-21T08:07:45;100380.38;;;26.14;46.75
52137;BME280;38130;49.012;8.368;2022-08-21T08:10:12;100381.03;;;25.75;47.27
52137;BME280;38130;49.012;8.368;2022-08-21T08:12:41;100376.41;;;25.43;48.17
52137;BME280;38130;49.012;8.368;2022-08-21T08:15:20;100381.25;;;25.56;47.82
52137;BME280;38130;49.012;8.368;2022-08-21T08:17:47;100377.91;;;25.46;48.76
52137;BME280;38130;49.012;8.368;2022-08-21T08:20:15;100362.19;;;25.85;47.72
52137;BME280;38130;49.012;8.368;2022-08-21T08:22:42;100365.31;;;25.64;47.84
52137;BME280;38130;49.012;8.368;2022-08-21T08:25:16;100365.44;;;25.46;47.80
52137;BME280;38130;49.012;8.368;2022-08-21T08:27:43;100360.16;;;24.86;49.43
52137;BME280;38130;49.012;8.368;2022-08-21T08:30:12;100361.94;;;24.52;50.16
52137;BME280;38130;49.012;8.368;2022-08-21T08:32:40;100354.69;;;24.00;52.74
52137;BME280;38130;49.012;8.368;2022-08-21T08:35:07;100364.09;;;23.95;54.15
52137;BME280;38130;49.012;8.368;2022-08-21T08:37:35;100354.03;;;23.53;55.92
52137;BME280;38130;49.012;8.368;2022-08-21T08:40:10;100359.44;;;23.61;55.85
52137;BME280;38130;49.012;8.368;2022-08-21T08:42:38;100352.88;;;23.38;56.01
52137;BME280;38130;49.012;8.368;2022-08-21T08:45:09;100350.66;;;23.06;56.23
52137;BME280;38130;49.012;8.368;2022-08-21T08:47:44;100345.41;;;22.86;56.53
52137;BME280;38130;49.012;8.368;2022-08-21T08:52:49;100343.31;;;23.45;54.87
52137;BME280;38130;49.012;8.368;2022-08-21T08:55:23;100347.59;;;23.55;54.02
52137;BME280;38130;49.012;8.368;2022-08-21T08:57:53;100335.72;;;23.77;54.05
52137;BME280;38130;49.012;8.368;2022-08-21T09:00:22;100331.84;;;23.72;53.66
52137;BME280;38130;49.012;8.368;2022-08-21T09:02:52;100333.88;;;23.78;53.36
52137;BME280;38130;49.012;8.368;2022-08-21T09:19:04;100313.13;;;28.22;40.43
52137;BME280;38130;49.012;8.368;2022-08-21T09:22:01;100302.09;;;28.02;40.25
52137;BME280;38130;49.012;8.368;2022-08-21T09:24:36;100311.28;;;27.31;41.03
52137;BME280;38130;49.012;8.368;2022-08-21T09:27:12;100308.84;;;27.13;42.43
52137;BME280;38130;49.012;8.368;2022-08-21T09:29:41;100301.47;;;28.00;40.08
52137;BME280;38130;49.012;8.368;2022-08-21T09:34:59;100298.00;;;27.92;39.73
52137;BME280;38130;49.012;8.368;2022-08-21T09:37:28;100293.28;;;27.25;40.92
52137;BME280;38130;49.012;8.368;2022-08-21T09:39:56;100296.66;;;27.19;41.22
52137;BME280;38130;49.012;8.368;2022-08-21T09:42:28;100291.78;;;27.23;41.37
52137;BME280;38130;49.012;8.368;2022-08-21T09:45:24;100290.06;;;28.21;39.18
52137;BME280;38130;49.012;8.368;2022-08-21T09:47:51;100287.25;;;28.67;36.58
52137;BME280;38130;49.012;8.368;2022-08-21T09:50:22;100297.69;;;27.95;37.44
52137;BME280;38130;49.012;8.368;2022-08-21T09:52:55;100299.03;;;27.91;37.83
52137;BME280;38130;49.012;8.368;2022-08-21T09:56:00;100294.19;;;27.40;37.74
52137;BME280;38130;49.012;8.368;2022-08-21T09:58:39;100299.19;;;27.12;38.68
52137;BME280;38130;49.012;8.368;2022-08-21T10:01:13;100300.94;;;26.89;38.54
52137;BME280;38130;49.012;8.368;2022-08-21T10:03:40;100292.03;;;26.97;38.62
52137;BME280;38130;49.012;8.368;2022-08-21T10:06:08;100287.50;;;26.66;39.44
52137;BME280;38130;49.012;8.368;2022-08-21T10:08:38;100284.91;;;26.42;39.12
52137;BME280;38130;49.012;8.368;2022-08-21T10:11:12;100283.16;;;26.65;39.33
52137;BME280;38130;49.012;8.368;2022-08-21T10:13:57;100285.44;;;26.05;40.74
52137;BME280;38130;49.012;8.368;2022-08-21T10:19:09;100275.31;;;26.64;41.00
52137;BME280;38130;49.012;8.368;2022-08-21T10:27:13;100263.25;;;27.92;38.14
52137;BME280;38130;49.012;8.368;2022-08-21T10:29:46;100263.19;;;28.38;36.80
52137;BME280;38130;49.012;8.368;2022-08-21T10:35:24;100268.00;;;28.57;36.19
52137;BME280;38130;49.012;8.368;2022-08-21T10:38:05;100259.88;;;28.50;36.05
52137;BME280;38130;49.012;8.368;2022-08-21T10:47:11;100254.91;;;28.24;35.14
52137;BME280;38130;49.012;8.368;2022-08-21T10:49:56;100258.66;;;28.38;34.43
52137;BME280;38130;49.012;8.368;2022-08-21T10:55:43;100249.84;;;28.15;34.32
52137;BME280;38130;49.012;8.368;2022-08-21T10:58:14;100251.38;;;28.32;34.56
52137;BME280;38130;49.012;8.368;2022-08-21T11:00:50;100251.69;;;28.14;34.97
52137;BME280;38130;49.012;8.368;2022-08-21T11:03:33;100249.38;;;27.96;34.99
52137;BME280;38130;49.012;8.368;2022-08-21T11:06:08;100246.50;;;27.98;35.71
52137;BME280;38130;49.012;8.368;2022-08-21T11:08:46;100246.81;;;28.18;34.72
52137;BME280;38130;49.012;8.368;2022-08-21T11:11:31;100241.00;;;28.14;34.75
52137;BME280;38130;49.012;8.368;2022-08-21T11:14:13;100241.47;;;28.18;34.59
52137;BME280;38130;49.012;8.368;2022-08-21T11:16:53;100239.16;;;28.15;34.59
52137;BME280;38130;49.012;8.368;2022-08-21T11:19:33;100238.19;;;28.45;33.10
52137;BME280;38130;49.012;8.368;2022-08-21T11:25:00;100234.53;;;27.94;33.76
52137;BME280;38130;49.012;8.368;2022-08-21T11:27:37;100229.50;;;27.30;34.03
52137;BME280;38130;49.012;8.368;2022-08-21T11:30:05;100222.28;;;27.08;36.04
52137;BME280;38130;49.012;8.368;2022-08-21T11:32:54;100219.69;;;26.52;37.70
52137;BME280;38130;49.012;8.368;2022-08-21T11:36:09;100216.69;;;26.55;36.54
52137;BME280;38130;49.012;8.368;2022-08-21T11:38:41;100217.38;;;26.80;36.72
52137;BME280;38130;49.012;8.368;2022-08-21T11:43:53;100215.28;;;27.53;34.51
52137;BME280;38130;49.012;8.368;2022-08-21T11:49:25;100215.28;;;27.30;33.42
52137;BME280;38130;49.012;8.368;2022-08-21T11:52:10;100204.97;;;27.50;33.79
52137;BME280;38130;49.012;8.368;2022-08-21T11:54:44;100204.59;;;27.75;33.68
52137;BME280;38130;49.012;8.368;2022-08-21T11:57:18;100205.56;;;27.83;33.64
52137;BME280;38130;49.012;8.368;2022-08-21T12:00:00;100204.00;;;28.03;33.46
52137;BME280;38130;49.012;8.368;2022-08-21T12:02:35;100203.28;;;27.94;32.54
52137;BME280;38130;49.012;8.368;2022-08-21T12:05:06;100199.94;;;27.78;33.51
52137;BME280;38130;49.012;8.368;2022-08-21T12:07:43;100194.31;;;27.87;32.52
52137;BME280;38130;49.012;8.368;2022-08-21T12:10:16;100194.38;;;27.64;32.82
52137;BME280;38130;49.012;8.368;2022-08-21T12:12:44;100189.78;;;27.50;33.36
52137;BME280;38130;49.012;8.368;2022-08-21T12:15:27;100185.78;;;27.69;33.84
52137;BME280;38130;49.012;8.368;2022-08-21T12:21:21;100188.78;;;27.89;32.79
52137;BME280;38130;49.012;8.368;2022-08-21T12:27:13;100181.31;;;27.84;32.91
52137;BME280;38130;49.012;8.368;2022-08-21T12:29:47;100173.50;;;27.14;33.33
52137;BME280;38130;49.012;8.368;2022-08-21T12:34:45;100184.31;;;27.21;33.32
52137;BME280;38130;49.012;8.368;2022-08-21T12:37:29;100172.69;;;27.36;33.65
52137;BME280;38130;49.012;8.368;2022-08-21T12:40:03;100175.66;;;27.64;33.36
52137;BME280;38130;49.012;8.368;2022-08-21T12:42:42;100171.41;;;27.70;32.75
52137;BME280;38130;49.012;8.368;2022-08-21T12:45:37;100172.44;;;27.69;32.37
52137;BME280;38130;49.012;8.368;2022-08-21T12:48:12;100166.75;;;27.87;32.47
52137;BME280;38130;49.012;8.368;2022-08-21T12:50:45;100164.81;;;27.81;32.38
52137;BME280;38130;49.012;8.368;2022-08-21T12:56:18;100166.13;;;27.99;31.28
52137;BME280;38130;49.012;8.368;2022-08-21T12:58:53;100164.00;;;27.80;30.86
52137;BME280;38130;49.012;8.368;2022-08-21T13:01:30;100170.31;;;27.64;31.57
52137;BME280;38130;49.012;8.368;2022-08-21T13:04:09;100161.84;;;27.75;31.28
52137;BME280;38130;49.012;8.368;2022-08-21T13:06:39;100169.50;;;27.79;31.09
52137;BME280;38130;49.012;8.368;2022-08-21T13:09:09;100159.94;;;27.84;31.38
52137;BME280;38130;49.012;8.368;2022-08-21T13:11:37;100151.81;;;28.07;31.70
52137;BME280;38130;49.012;8.368;2022-08-21T13:14:14;100156.16;;;28.23;31.79
52137;BME280;38130;49.012;8.368;2022-08-21T13:16:45;100151.47;;;28.25;32.13
52137;BME280;38130;49.012;8.368;2022-08-21T13:19:17;100154.81;;;28.42;32.00
52137;BME280;38130;49.012;8.368;2022-08-21T13:21:50;100146.84;;;28.19;32.06
52137;BME280;38130;49.012;8.368;2022-08-21T13:27:24;100143.44;;;27.95;32.30
52137;BME280;38130;49.012;8.368;2022-08-21T13:30:10;100140.97;;;27.94;32.85
52137;BME280;38130;49.012;8.368;2022-08-21T13:32:44;100140.84;;;28.02;32.79
52137;BME280;38130;49.012;8.368;2022-08-21T13:35:16;100140.94;;;28.09;32.45
52137;BME280;38130;49.012;8.368;2022-08-21T13:37:44;100136.97;;;28.19;32.32
52137;BME280;38130;49.012;8.368;2022-08-21T13:40:20;100135.50;;;28.17;32.43
52137;BME280;38130;49.012;8.368;2022-08-21T13:42:48;100134.94;;;28.21;32.66
52137;BME280;38130;49.012;8.368;2022-08-21T13:45:24;100126.22;;;28.27;32.86
52137;BME280;38130;49.012;8.368;2022-08-21T13:47:51;100133.69;;;28.32;32.83
52137;BME280;38130;49.012;8.368;2022-08-21T13:50:22;100130.88;;;28.40;32.97
52137;BME280;38130;49.012;8.368;2022-08-21T13:53:02;100127.88;;;28.64;32.15
52137;BME280;38130;49.012;8.368;2022-08-21T13:55:41;100115.88;;;28.75;32.13
52137;BME280;38130;49.012;8.368;2022-08-21T13:58:09;100110.91;;;28.72;32.38
52137;BME280;38130;49.012;8.368;2022-08-21T14:00:47;100116.13;;;28.80;32.08
52137;BME280;38130;49.012;8.368;2022-08-21T14:05:59;100118.22;;;28.85;29.80
52137;BME280;38130;49.012;8.368;2022-08-21T14:08:37;100127.06;;;28.85;29.23
52137;BME280;38130;49.012;8.368;2022-08-21T14:11:05;100114.25;;;28.96;29.23
52137;BME280;38130;49.012;8.368;2022-08-21T14:13:45;100113.59;;;29.15;29.46